sensor_id;sensor_type;location;lat;lon;timestamp;P1;durP1;ratioP1;P2;durP2;ratioP2
66593;SDS011;53450;42.584;23.366;2023-02-07T00:00:04;11.23;;;8.17;;
66593;SDS011;53450;42.584;23.366;2023-02-07T00:02:37;13.63;;;7.23;;
66593;SDS011;53450;42.584;23.366;2023-02-07T00:05:06;8.87;;;5.80;;
66593;SDS011;53450;42.584;23.366;2023-02-07T00:07:32;18.63;;;8.37;;
66593;SDS011;53450;42.584;23.366;2023-02-07T00:09:57;16.70;;;7.37;;
66593;SDS011;53450;42.584;23.366;2023-02-07T00:12:23;14.93;;;6.83;;
66593;SDS011;53450;42.584;23.366;2023-02-07T00:14:49;14.43;;;8.07;;
66593;SDS011;53450;42.584;23.366;2023-02-07T00:17:14;11.90;;;7.80;;
66593;SDS011;53450;42.584;23.366;2023-02-07T00:19:44;11.40;;;6.87;;
66593;SDS011;53450;42.584;23.366;2023-02-07T00:22:09;8.40;;;5.87;;
66593;SDS011;53450;42.584;23.366;2023-02-07T00:24:35;6.77;;;5.07;;
66593;SDS011;53450;42.584;23.366;2023-02-07T00:27:00;10.83;;;6.77;;
66593;SDS011;53450;42.584;23.366;2023-02-07T00:29:26;13.07;;;7.17;;
66593;SDS011;53450;42.584;23.366;2023-02-07T00:31:51;9.13;;;6.03;;
66593;SDS011;53450;42.584;23.366;2023-02-07T00:34:18;6.43;;;4.57;;
66593;SDS011;53450;42.584;23.366;2023-02-07T00:36:44;11.83;;;7.17;;
66593;SDS011;53450;42.584;23.366;2023-02-07T00:39:11;10.20;;;5.93;;
66593;SDS011;53450;42.584;23.366;2023-02-07T00:41:39;8.37;;;5.30;;
66593;SDS011;53450;42.584;23.366;2023-02-07T00:44:05;13.17;;;5.90;;
66593;SDS011;53450;42.584;23.366;2023-02-07T00:46:31;11.77;;;5.87;;
66593;SDS011;53450;42.584;23.366;2023-02-07T00:48:57;13.50;;;5.53;;
66593;SDS011;53450;42.584;23.366;2023-02-07T00:51:22;10.80;;;5.53;;
66593;SDS011;53450;42.584;23.366;2023-02-07T00:53:54;5.03;;;3.60;;
66593;SDS011;53450;42.584;23.366;2023-02-07T00:56:23;2.55;;;2.35;;
66593;SDS011;53450;42.584;23.366;2023-02-07T00:58:49;9.00;;;5.40;;
66593;SDS011;53450;42.584;23.366;2023-02-07T01:01:15;5.60;;;4.40;;
66593;SDS011;53450;42.584;23.366;2023-02-07T01:03:41;10.80;;;6.03;;
66593;SDS011;53450;42.584;23.366;2023-02-07T01:06:07;10.97;;;5.27;;
66593;SDS011;53450;42.584;23.366;2023-02-07T01:08:34;9.87;;;5.10;;
66593;SDS011;53450;42.584;23.366;2023-02-07T01:11:01;6.40;;;5.17;;
66593;SDS011;53450;42.584;23.366;2023-02-07T01:13:31;13.55;;;5.97;;
66593;SDS011;53450;42.584;23.366;2023-02-07T01:15:57;12.03;;;6.57;;
66593;SDS011;53450;42.584;23.366;2023-02-07T01:18:23;9.00;;;5.77;;
66593;SDS011;53450;42.584;23.366;2023-02-07T01:20:48;11.00;;;5.70;;
66593;SDS011;53450;42.584;23.366;2023-02-07T01:23:14;14.73;;;6.73;;
66593;SDS011;53450;42.584;23.366;2023-02-07T01:25:40;13.47;;;6.57;;
66593;SDS011;53450;42.584;23.366;2023-02-07T01:28:14;12.23;;;6.30;;
66593;SDS011;53450;42.584;23.366;2023-02-07T01:30:41;10.43;;;6.97;;
66593;SDS011;53450;42.584;23.366;2023-02-07T01:33:07;12.60;;;7.43;;
66593;SDS011;53450;42.584;23.366;2023-02-07T01:35:34;10.60;;;6.40;;
66593;SDS011;53450;42.584;23.366;2023-02-07T01:38:01;11.27;;;7.20;;
66593;SDS011;53450;42.584;23.366;2023-02-07T01:40:28;9.53;;;5.87;;
66593;SDS011;53450;42.584;23.366;2023-02-07T01:42:55;8.57;;;6.07;;
66593;SDS011;53450;42.584;23.366;2023-02-07T01:45:32;6.97;;;4.67;;
66593;SDS011;53450;42.584;23.366;2023-02-07T01:48:08;8.87;;;5.13;;
66593;SDS011;53450;42.584;23.366;2023-02-07T01:50:37;9.80;;;5.17;;
66593;SDS011;53450;42.584;23.366;2023-02-07T01:53:06;8.40;;;5.00;;
66593;SDS011;53450;42.584;23.366;2023-02-07T01:55:32;5.77;;;4.33;;
66593;SDS011;53450;42.584;23.366;2023-02-07T01:58:01;7.83;;;5.10;;
66593;SDS011;53450;42.584;23.366;2023-02-07T02:00:30;5.03;;;4.17;;
66593;SDS011;53450;42.584;23.366;2023-02-07T02:02:56;4.27;;;3.63;;
66593;SDS011;53450;42.584;23.366;2023-02-07T02:05:22;2.57;;;2.37;;
66593;SDS011;53450;42.584;23.366;2023-02-07T02:07:48;17.13;;;9.30;;
66593;SDS011;53450;42.584;23.366;2023-02-07T02:18:29;10.67;;;6.57;;
66593;SDS011;53450;42.584;23.366;2023-02-07T02:34:57;13.00;;;7.30;;
66593;SDS011;53450;42.584;23.366;2023-02-07T02:37:27;9.47;;;5.73;;
66593;SDS011;53450;42.584;23.366;2023-02-07T02:40:06;5.33;;;4.07;;
66593;SDS011;53450;42.584;23.366;2023-02-07T02:45:11;7.23;;;4.63;;
66593;SDS011;53450;42.584;23.366;2023-02-07T02:47:44;8.43;;;6.97;;
66593;SDS011;53450;42.584;23.366;2023-02-07T02:50:17;11.90;;;6.53;;
66593;SDS011;53450;42.584;23.366;2023-02-07T02:52:47;6.63;;;5.40;;
66593;SDS011;53450;42.584;23.366;2023-02-07T02:55:13;6.60;;;5.17;;
66593;SDS011;53450;42.584;23.366;2023-02-07T02:57:50;10.27;;;6.23;;
66593;SDS011;53450;42.584;23.366;2023-02-07T03:00:41;6.73;;;3.33;;
66593;SDS011;53450;42.584;23.366;2023-02-07T03:06:11;8.30;;;5.43;;
66593;SDS011;53450;42.584;23.366;2023-02-07T03:08:56;7.72;;;3.85;;
66593;SDS011;53450;42.584;23.366;2023-02-07T03:14:35;6.87;;;5.57;;
66593;SDS011;53450;42.584;23.366;2023-02-07T03:17:48;5.77;;;3.93;;
66593;SDS011;53450;42.584;23.366;2023-02-07T03:20:20;15.60;;;8.17;;
66593;SDS011;53450;42.584;23.366;2023-02-07T03:22:46;17.90;;;8.07;;
66593;SDS011;53450;42.584;23.366;2023-02-07T03:25:15;13.40;;;7.13;;
66593;SDS011;53450;42.584;23.366;2023-02-07T03:27:43;11.60;;;7.83;;
66593;SDS011;53450;42.584;23.366;2023-02-07T03:30:12;10.90;;;7.27;;
66593;SDS011;53450;42.584;23.366;2023-02-07T03:32:42;11.47;;;6.20;;
66593;SDS011;53450;42.584;23.366;2023-02-07T03:35:16;9.97;;;6.30;;
66593;SDS011;53450;42.584;23.366;2023-02-07T03:37:54;7.37;;;5.03;;
66593;SDS011;53450;42.584;23.366;2023-02-07T03:40:26;8.97;;;5.77;;
66593;SDS011;53450;42.584;23.366;2023-02-07T03:45:37;6.03;;;4.70;;
66593;SDS011;53450;42.584;23.366;2023-02-07T03:48:03;10.13;;;6.23;;
66593;SDS011;53450;42.584;23.366;2023-02-07T03:50:31;18.30;;;8.33;;
66593;SDS011;53450;42.584;23.366;2023-02-07T03:52:56;11.43;;;7.53;;
66593;SDS011;53450;42.584;23.366;2023-02-07T03:55:22;11.67;;;8.57;;
66593;SDS011;53450;42.584;23.366;2023-02-07T03:57:48;17.47;;;9.60;;
66593;SDS011;53450;42.584;23.366;2023-02-07T04:00:13;13.17;;;6.90;;
66593;SDS011;53450;42.584;23.366;2023-02-07T04:02:40;10.50;;;7.67;;
66593;SDS011;53450;42.584;23.366;2023-02-07T04:05:06;14.23;;;8.70;;
66593;SDS011;53450;42.584;23.366;2023-02-07T04:07:32;22.27;;;12.10;;
66593;SDS011;53450;42.584;23.366;2023-02-07T04:09:58;8.67;;;5.63;;
66593;SDS011;53450;42.584;23.366;2023-02-07T04:12:24;17.17;;;9.43;;
66593;SDS011;53450;42.584;23.366;2023-02-07T04:14:56;11.20;;;7.50;;
66593;SDS011;53450;42.584;23.366;2023-02-07T04:17:23;15.17;;;8.50;;
66593;SDS011;53450;42.584;23.366;2023-02-07T04:19:48;30.23;;;11.33;;
66593;SDS011;53450;42.584;23.366;2023-02-07T04:22:14;5.97;;;4.87;;
66593;SDS011;53450;42.584;23.366;2023-02-07T04:24:39;12.33;;;6.93;;
66593;SDS011;53450;42.584;23.366;2023-02-07T04:27:05;18.70;;;11.10;;
66593;SDS011;53450;42.584;23.366;2023-02-07T04:29:31;13.37;;;6.53;;
66593;SDS011;53450;42.584;23.366;2023-02-07T04:31:56;8.47;;;6.07;;
66593;SDS011;53450;42.584;23.366;2023-02-07T04:34:22;7.93;;;5.37;;
66593;SDS011;53450;42.584;23.366;2023-02-07T04:36:47;12.60;;;6.60;;
66593;SDS011;53450;42.584;23.366;2023-02-07T04:39:13;9.47;;;6.60;;
66593;SDS011;53450;42.584;23.366;2023-02-07T04:41:39;9.90;;;6.27;;
66593;SDS011;53450;42.584;23.366;2023-02-07T04:44:04;10.20;;;5.97;;
66593;SDS011;53450;42.584;23.366;2023-02-07T04:46:30;9.87;;;5.37;;
66593;SDS011;53450;42.584;23.366;2023-02-07T04:48:55;6.03;;;4.87;;
66593;SDS011;53450;42.584;23.366;2023-02-07T04:51:21;12.53;;;7.77;;
66593;SDS011;53450;42.584;23.366;2023-02-07T04:53:47;7.27;;;5.97;;
66593;SDS011;53450;42.584;23.366;2023-02-07T04:56:12;10.00;;;7.03;;
66593;SDS011;53450;42.584;23.366;2023-02-07T04:58:38;20.97;;;10.07;;
66593;SDS011;53450;42.584;23.366;2023-02-07T05:01:04;19.73;;;10.57;;
66593;SDS011;53450;42.584;23.366;2023-02-07T05:03:29;7.27;;;5.63;;
66593;SDS011;53450;42.584;23.366;2023-02-07T05:05:55;14.00;;;8.60;;
66593;SDS011;53450;42.584;23.366;2023-02-07T05:08:20;21.47;;;10.27;;
66593;SDS011;53450;42.584;23.366;2023-02-07T05:10:46;17.90;;;9.50;;
66593;SDS011;53450;42.584;23.366;2023-02-07T05:13:16;16.23;;;8.23;;
66593;SDS011;53450;42.584;23.366;2023-02-07T05:15:42;13.00;;;9.23;;
66593;SDS011;53450;42.584;23.366;2023-02-07T05:18:07;11.53;;;7.87;;
66593;SDS011;53450;42.584;23.366;2023-02-07T05:20:33;15.77;;;8.40;;
66593;SDS011;53450;42.584;23.366;2023-02-07T05:22:58;21.10;;;13.87;;
66593;SDS011;53450;42.584;23.366;2023-02-07T05:25:24;16.03;;;10.13;;
66593;SDS011;53450;42.584;23.366;2023-02-07T05:27:49;11.17;;;7.33;;
66593;SDS011;53450;42.584;23.366;2023-02-07T05:30:15;14.33;;;8.07;;
66593;SDS011;53450;42.584;23.366;2023-02-07T05:32:41;12.47;;;8.57;;
66593;SDS011;53450;42.584;23.366;2023-02-07T05:35:25;17.50;;;8.80;;
66593;SDS011;53450;42.584;23.366;2023-02-07T05:37:51;18.33;;;9.37;;
66593;SDS011;53450;42.584;23.366;2023-02-07T05:40:16;11.80;;;8.67;;
66593;SDS011;53450;42.584;23.366;2023-02-07T05:42:42;11.47;;;7.07;;
66593;SDS011;53450;42.584;23.366;2023-02-07T05:45:08;15.73;;;9.33;;
66593;SDS011;53450;42.584;23.366;2023-02-07T05:47:33;15.80;;;10.17;;
66593;SDS011;53450;42.584;23.366;2023-02-07T05:49:59;17.77;;;11.87;;
66593;SDS011;53450;42.584;23.366;2023-02-07T05:52:25;18.90;;;10.57;;
66593;SDS011;53450;42.584;23.366;2023-02-07T05:54:50;26.33;;;13.03;;
66593;SDS011;53450;42.584;23.366;2023-02-07T05:57:16;25.90;;;12.43;;
66593;SDS011;53450;42.584;23.366;2023-02-07T05:59:42;28.80;;;15.23;;
66593;SDS011;53450;42.584;23.366;2023-02-07T06:02:07;18.80;;;12.40;;
66593;SDS011;53450;42.584;23.366;2023-02-07T06:04:33;19.97;;;10.87;;
66593;SDS011;53450;42.584;23.366;2023-02-07T06:06:58;20.70;;;10.53;;
66593;SDS011;53450;42.584;23.366;2023-02-07T06:09:24;21.00;;;10.67;;
66593;SDS011;53450;42.584;23.366;2023-02-07T06:11:49;20.10;;;10.17;;
66593;SDS011;53450;42.584;23.366;2023-02-07T06:14:15;45.40;;;19.57;;
66593;SDS011;53450;42.584;23.366;2023-02-07T06:16:40;28.77;;;15.20;;
66593;SDS011;53450;42.584;23.366;2023-02-07T06:19:06;31.67;;;16.50;;
66593;SDS011;53450;42.584;23.366;2023-02-07T06:21:32;27.53;;;14.60;;
66593;SDS011;53450;42.584;23.366;2023-02-07T06:23:57;27.23;;;15.30;;
66593;SDS011;53450;42.584;23.366;2023-02-07T06:26:23;35.80;;;16.33;;
66593;SDS011;53450;42.584;23.366;2023-02-07T06:28:48;20.33;;;10.77;;
66593;SDS011;53450;42.584;23.366;2023-02-07T06:31:14;17.47;;;7.87;;
66593;SDS011;53450;42.584;23.366;2023-02-07T06:33:39;16.27;;;9.10;;
66593;SDS011;53450;42.584;23.366;2023-02-07T06:36:05;13.00;;;8.73;;
66593;SDS011;53450;42.584;23.366;2023-02-07T06:38:31;15.03;;;8.60;;
66593;SDS011;53450;42.584;23.366;2023-02-07T06:40:56;16.80;;;10.33;;
66593;SDS011;53450;42.584;23.366;2023-02-07T06:43:22;23.17;;;13.07;;
66593;SDS011;53450;42.584;23.366;2023-02-07T06:45:47;22.07;;;11.17;;
66593;SDS011;53450;42.584;23.366;2023-02-07T06:48:13;22.70;;;11.37;;
66593;SDS011;53450;42.584;23.366;2023-02-07T06:50:39;26.17;;;12.97;;
66593;SDS011;53450;42.584;23.366;2023-02-07T06:53:04;26.67;;;12.00;;
66593;SDS011;53450;42.584;23.366;2023-02-07T06:55:30;21.47;;;11.77;;
66593;SDS011;53450;42.584;23.366;2023-02-07T06:57:57;17.23;;;11.07;;
66593;SDS011;53450;42.584;23.366;2023-02-07T07:00:23;22.03;;;12.83;;
66593;SDS011;53450;42.584;23.366;2023-02-07T07:02:49;18.67;;;8.83;;
66593;SDS011;53450;42.584;23.366;2023-02-07T07:05:15;9.10;;;6.57;;
66593;SDS011;53450;42.584;23.366;2023-02-07T07:07:41;13.80;;;9.80;;
66593;SDS011;53450;42.584;23.366;2023-02-07T07:10:06;17.83;;;10.17;;
66593;SDS011;53450;42.584;23.366;2023-02-07T07:12:32;13.80;;;8.23;;
66593;SDS011;53450;42.584;23.366;2023-02-07T07:14:58;8.77;;;6.97;;
66593;SDS011;53450;42.584;23.366;2023-02-07T07:17:24;14.67;;;7.10;;
66593;SDS011;53450;42.584;23.366;2023-02-07T07:19:50;21.00;;;10.83;;
66593;SDS011;53450;42.584;23.366;2023-02-07T07:22:15;11.63;;;7.47;;
66593;SDS011;53450;42.584;23.366;2023-02-07T07:24:41;11.37;;;6.77;;
66593;SDS011;53450;42.584;23.366;2023-02-07T07:27:06;11.07;;;7.77;;
66593;SDS011;53450;42.584;23.366;2023-02-07T07:29:32;23.50;;;11.83;;
66593;SDS011;53450;42.584;23.366;2023-02-07T07:31:58;13.57;;;6.77;;
66593;SDS011;53450;42.584;23.366;2023-02-07T07:34:23;234.57;;;87.87;;
66593;SDS011;53450;42.584;23.366;2023-02-07T07:36:49;66.73;;;24.77;;
66593;SDS011;53450;42.584;23.366;2023-02-07T07:39:14;40.80;;;14.97;;
66593;SDS011;53450;42.584;23.366;2023-02-07T07:41:41;19.47;;;11.03;;
66593;SDS011;53450;42.584;23.366;2023-02-07T07:44:14;56.43;;;23.63;;
66593;SDS011;53450;42.584;23.366;2023-02-07T07:46:40;36.43;;;16.43;;
66593;SDS011;53450;42.584;23.366;2023-02-07T07:49:06;33.17;;;19.47;;
66593;SDS011;53450;42.584;23.366;2023-02-07T07:51:32;19.57;;;11.10;;
66593;SDS011;53450;42.584;23.366;2023-02-07T07:53:58;22.53;;;12.87;;
66593;SDS011;53450;42.584;23.366;2023-02-07T07:56:24;26.43;;;13.77;;
66593;SDS011;53450;42.584;23.366;2023-02-07T07:58:49;46.83;;;17.87;;
66593;SDS011;53450;42.584;23.366;2023-02-07T08:01:15;25.10;;;12.90;;
66593;SDS011;53450;42.584;23.366;2023-02-07T08:03:40;33.23;;;15.83;;
66593;SDS011;53450;42.584;23.366;2023-02-07T08:06:06;29.90;;;15.37;;
66593;SDS011;53450;42.584;23.366;2023-02-07T08:08:32;18.70;;;10.47;;
66593;SDS011;53450;42.584;23.366;2023-02-07T08:11:04;7.03;;;4.87;;
66593;SDS011;53450;42.584;23.366;2023-02-07T08:13:31;12.23;;;7.53;;
66593;SDS011;53450;42.584;23.366;2023-02-07T08:15:57;13.63;;;7.70;;
66593;SDS011;53450;42.584;23.366;2023-02-07T08:18:23;6.90;;;4.83;;
66593;SDS011;53450;42.584;23.366;2023-02-07T08:20:49;15.13;;;5.20;;
66593;SDS011;53450;42.584;23.366;2023-02-07T08:23:15;9.63;;;6.50;;
66593;SDS011;53450;42.584;23.366;2023-02-07T08:25:41;5.00;;;3.37;;
66593;SDS011;53450;42.584;23.366;2023-02-07T08:28:07;14.83;;;8.60;;
66593;SDS011;53450;42.584;23.366;2023-02-07T08:30:33;10.47;;;6.43;;
66593;SDS011;53450;42.584;23.366;2023-02-07T08:32:59;15.67;;;8.30;;
66593;SDS011;53450;42.584;23.366;2023-02-07T08:35:25;16.10;;;9.10;;
66593;SDS011;53450;42.584;23.366;2023-02-07T08:37:51;13.60;;;8.10;;
66593;SDS011;53450;42.584;23.366;2023-02-07T08:40:17;16.43;;;8.27;;
66593;SDS011;53450;42.584;23.366;2023-02-07T08:42:43;19.90;;;10.70;;
66593;SDS011;53450;42.584;23.366;2023-02-07T08:45:09;13.37;;;8.27;;
66593;SDS011;53450;42.584;23.366;2023-02-07T08:47:35;9.77;;;6.90;;
66593;SDS011;53450;42.584;23.366;2023-02-07T08:50:01;14.13;;;9.37;;
66593;SDS011;53450;42.584;23.366;2023-02-07T08:52:27;18.97;;;9.00;;
66593;SDS011;53450;42.584;23.366;2023-02-07T08:54:53;15.63;;;7.97;;
66593;SDS011;53450;42.584;23.366;2023-02-07T08:57:18;11.47;;;7.23;;
66593;SDS011;53450;42.584;23.366;2023-02-07T08:59:48;7.87;;;5.50;;
66593;SDS011;53450;42.584;23.366;2023-02-07T09:02:14;9.20;;;5.00;;
66593;SDS011;53450;42.584;23.366;2023-02-07T09:04:39;7.90;;;5.23;;
66593;SDS011;53450;42.584;23.366;2023-02-07T09:07:08;11.57;;;6.93;;
66593;SDS011;53450;42.584;23.366;2023-02-07T09:09:34;10.33;;;6.23;;
66593;SDS011;53450;42.584;23.366;2023-02-07T09:12:00;6.90;;;5.27;;
66593;SDS011;53450;42.584;23.366;2023-02-07T09:14:26;10.67;;;7.47;;
66593;SDS011;53450;42.584;23.366;2023-02-07T09:16:51;15.20;;;8.43;;
66593;SDS011;53450;42.584;23.366;2023-02-07T09:19:17;15.73;;;8.33;;
66593;SDS011;53450;42.584;23.366;2023-02-07T09:21:43;14.10;;;8.97;;
66593;SDS011;53450;42.584;23.366;2023-02-07T09:24:09;19.63;;;8.67;;
66593;SDS011;53450;42.584;23.366;2023-02-07T09:26:34;23.83;;;11.17;;
66593;SDS011;53450;42.584;23.366;2023-02-07T09:29:00;11.03;;;6.93;;
66593;SDS011;53450;42.584;23.366;2023-02-07T09:31:26;15.80;;;9.07;;
66593;SDS011;53450;42.584;23.366;2023-02-07T09:33:52;16.23;;;9.33;;
66593;SDS011;53450;42.584;23.366;2023-02-07T09:36:19;9.07;;;6.37;;
66593;SDS011;53450;42.584;23.366;2023-02-07T09:38:49;10.85;;;6.13;;
66593;SDS011;53450;42.584;23.366;2023-02-07T09:44:21;14.67;;;7.17;;
66593;SDS011;53450;42.584;23.366;2023-02-07T09:47:25;40.10;;;15.67;;
66593;SDS011;53450;42.584;23.366;2023-02-07T09:52:27;15.87;;;8.20;;
66593;SDS011;53450;42.584;23.366;2023-02-07T09:54:57;29.20;;;11.23;;
66593;SDS011;53450;42.584;23.366;2023-02-07T09:57:44;16.83;;;8.50;;
66593;SDS011;53450;42.584;23.366;2023-02-07T10:00:25;15.60;;;7.90;;
66593;SDS011;53450;42.584;23.366;2023-02-07T10:03:19;9.77;;;6.67;;
66593;SDS011;53450;42.584;23.366;2023-02-07T10:06:15;10.30;;;6.17;;
66593;SDS011;53450;42.584;23.366;2023-02-07T10:08:46;12.80;;;7.90;;
66593;SDS011;53450;42.584;23.366;2023-02-07T10:11:22;13.03;;;7.93;;
66593;SDS011;53450;42.584;23.366;2023-02-07T10:14:21;22.30;;;9.97;;
66593;SDS011;53450;42.584;23.366;2023-02-07T10:22:30;12.87;;;6.30;;
66593;SDS011;53450;42.584;23.366;2023-02-07T10:30:46;8.97;;;6.03;;
66593;SDS011;53450;42.584;23.366;2023-02-07T10:35:43;9.07;;;6.27;;
66593;SDS011;53450;42.584;23.366;2023-02-07T10:41:05;10.97;;;6.87;;
66593;SDS011;53450;42.584;23.366;2023-02-07T10:43:43;15.57;;;7.13;;
66593;SDS011;53450;42.584;23.366;2023-02-07T10:46:36;10.20;;;5.87;;
66593;SDS011;53450;42.584;23.366;2023-02-07T10:49:29;13.57;;;7.40;;
66593;SDS011;53450;42.584;23.366;2023-02-07T10:51:58;10.83;;;4.87;;
66593;SDS011;53450;42.584;23.366;2023-02-07T10:54:26;15.63;;;8.73;;
66593;SDS011;53450;42.584;23.366;2023-02-07T10:56:54;12.00;;;7.50;;
66593;SDS011;53450;42.584;23.366;2023-02-07T11:04:58;22.00;;;9.97;;
66593;SDS011;53450;42.584;23.366;2023-02-07T11:07:25;26.37;;;12.90;;
66593;SDS011;53450;42.584;23.366;2023-02-07T11:10:09;19.07;;;9.47;;
66593;SDS011;53450;42.584;23.366;2023-02-07T11:12:46;19.10;;;8.70;;
66593;SDS011;53450;42.584;23.366;2023-02-07T11:15:18;19.90;;;8.40;;
66593;SDS011;53450;42.584;23.366;2023-02-07T11:17:47;10.93;;;7.33;;
66593;SDS011;53450;42.584;23.366;2023-02-07T11:20:36;15.17;;;8.00;;
66593;SDS011;53450;42.584;23.366;2023-02-07T11:23:13;7.83;;;5.73;;
66593;SDS011;53450;42.584;23.366;2023-02-07T11:25:43;12.50;;;7.57;;
66593;SDS011;53450;42.584;23.366;2023-02-07T11:30:50;25.60;;;11.57;;
66593;SDS011;53450;42.584;23.366;2023-02-07T11:33:27;41.10;;;19.57;;
66593;SDS011;53450;42.584;23.366;2023-02-07T11:38:57;16.33;;;9.13;;
66593;SDS011;53450;42.584;23.366;2023-02-07T11:41:25;15.43;;;8.13;;
66593;SDS011;53450;42.584;23.366;2023-02-07T11:46:33;43.87;;;15.27;;
66593;SDS011;53450;42.584;23.366;2023-02-07T11:48:58;18.07;;;11.50;;
66593;SDS011;53450;42.584;23.366;2023-02-07T11:51:24;20.13;;;10.67;;
66593;SDS011;53450;42.584;23.366;2023-02-07T11:54:01;32.13;;;13.47;;
66593;SDS011;53450;42.584;23.366;2023-02-07T11:56:30;22.77;;;9.00;;
66593;SDS011;53450;42.584;23.366;2023-02-07T11:59:04;12.67;;;7.93;;
66593;SDS011;53450;42.584;23.366;2023-02-07T12:04:05;21.87;;;9.77;;
66593;SDS011;53450;42.584;23.366;2023-02-07T12:09:10;37.15;;;15.23;;
66593;SDS011;53450;42.584;23.366;2023-02-07T12:11:45;73.13;;;41.20;;
66593;SDS011;53450;42.584;23.366;2023-02-07T12:14:26;23.80;;;12.43;;
66593;SDS011;53450;42.584;23.366;2023-02-07T12:17:11;20.13;;;10.87;;
66593;SDS011;53450;42.584;23.366;2023-02-07T12:19:53;14.93;;;8.27;;
66593;SDS011;53450;42.584;23.366;2023-02-07T12:22:27;43.80;;;22.77;;
66593;SDS011;53450;42.584;23.366;2023-02-07T12:25:08;19.17;;;11.17;;
66593;SDS011;53450;42.584;23.366;2023-02-07T12:27:43;167.53;;;73.33;;
66593;SDS011;53450;42.584;23.366;2023-02-07T12:30:14;53.17;;;22.67;;
66593;SDS011;53450;42.584;23.366;2023-02-07T12:36:08;20.77;;;11.87;;
66593;SDS011;53450;42.584;23.366;2023-02-07T12:41:39;35.43;;;18.43;;
66593;SDS011;53450;42.584;23.366;2023-02-07T12:56:42;32.70;;;14.17;;
66593;SDS011;53450;42.584;23.366;2023-02-07T13:02:31;60.77;;;25.83;;
66593;SDS011;53450;42.584;23.366;2023-02-07T13:07:57;41.20;;;14.37;;
66593;SDS011;53450;42.584;23.366;2023-02-07T13:18:15;10.35;;;7.05;;
66593;SDS011;53450;42.584;23.366;2023-02-07T13:23:30;35.63;;;14.57;;
66593;SDS011;53450;42.584;23.366;2023-02-07T13:26:01;19.93;;;10.30;;
66593;SDS011;53450;42.584;23.366;2023-02-07T13:31:28;12.60;;;8.93;;
66593;SDS011;53450;42.584;23.366;2023-02-07T13:36:54;29.50;;;11.00;;
66593;SDS011;53450;42.584;23.366;2023-02-07T13:44:57;27.27;;;11.70;;
66593;SDS011;53450;42.584;23.366;2023-02-07T13:56:10;182.17;;;69.47;;
66593;SDS011;53450;42.584;23.366;2023-02-07T13:58:56;298.43;;;129.77;;
66593;SDS011;53450;42.584;23.366;2023-02-07T14:01:51;192.77;;;81.33;;
66593;SDS011;53450;42.584;23.366;2023-02-07T14:04:19;39.80;;;19.93;;
66593;SDS011;53450;42.584;23.366;2023-02-07T14:11:57;24.63;;;12.67;;
66593;SDS011;53450;42.584;23.366;2023-02-07T14:17:06;125.37;;;53.87;;
66593;SDS011;53450;42.584;23.366;2023-02-07T14:22:24;163.10;;;67.73;;
66593;SDS011;53450;42.584;23.366;2023-02-07T14:32:26;201.90;;;83.83;;
66593;SDS011;53450;42.584;23.366;2023-02-07T14:37:54;76.27;;;32.70;;
66593;SDS011;53450;42.584;23.366;2023-02-07T14:40:33;159.60;;;66.43;;
66593;SDS011;53450;42.584;23.366;2023-02-07T14:43:15;58.97;;;25.27;;
66593;SDS011;53450;42.584;23.366;2023-02-07T14:51:16;55.23;;;30.40;;
66593;SDS011;53450;42.584;23.366;2023-02-07T14:53:49;51.73;;;22.87;;
66593;SDS011;53450;42.584;23.366;2023-02-07T14:59:10;61.80;;;25.27;;
66593;SDS011;53450;42.584;23.366;2023-02-07T15:01:41;37.28;;;17.08;;
66593;SDS011;53450;42.584;23.366;2023-02-07T15:04:07;73.10;;;30.67;;
66593;SDS011;53450;42.584;23.366;2023-02-07T15:06:37;69.93;;;23.97;;
66593;SDS011;53450;42.584;23.366;2023-02-07T15:09:05;78.07;;;28.07;;
66593;SDS011;53450;42.584;23.366;2023-02-07T15:11:40;61.40;;;20.37;;
66593;SDS011;53450;42.584;23.366;2023-02-07T15:14:13;22.63;;;12.53;;
66593;SDS011;53450;42.584;23.366;2023-02-07T15:16:45;21.77;;;10.77;;
66593;SDS011;53450;42.584;23.366;2023-02-07T15:19:56;68.30;;;29.67;;
66593;SDS011;53450;42.584;23.366;2023-02-07T15:22:02;27.37;;;15.27;;
66593;SDS011;53450;42.584;23.366;2023-02-07T15:24:30;49.97;;;18.37;;
66593;SDS011;53450;42.584;23.366;2023-02-07T15:27:01;61.55;;;27.80;;
66593;SDS011;53450;42.584;23.366;2023-02-07T15:29:28;51.63;;;26.47;;
66593;SDS011;53450;42.584;23.366;2023-02-07T15:31:57;54.20;;;21.60;;
66593;SDS011;53450;42.584;23.366;2023-02-07T15:34:24;54.20;;;21.00;;
66593;SDS011;53450;42.584;23.366;2023-02-07T15:36:59;63.23;;;27.37;;
66593;SDS011;53450;42.584;23.366;2023-02-07T15:39:36;80.47;;;38.07;;
66593;SDS011;53450;42.584;23.366;2023-02-07T15:42:02;45.17;;;25.20;;
66593;SDS011;53450;42.584;23.366;2023-02-07T15:44:29;46.87;;;23.60;;
66593;SDS011;53450;42.584;23.366;2023-02-07T15:52:02;23.93;;;12.50;;
66593;SDS011;53450;42.584;23.366;2023-02-07T15:54:39;39.67;;;20.63;;
66593;SDS011;53450;42.584;23.366;2023-02-07T15:57:22;43.43;;;20.67;;
66593;SDS011;53450;42.584;23.366;2023-02-07T16:00:28;48.03;;;18.83;;
66593;SDS011;53450;42.584;23.366;2023-02-07T16:02:59;46.37;;;22.40;;
66593;SDS011;53450;42.584;23.366;2023-02-07T16:05:30;123.97;;;54.93;;
66593;SDS011;53450;42.584;23.366;2023-02-07T16:08:02;49.90;;;22.40;;
66593;SDS011;53450;42.584;23.366;2023-02-07T16:15:57;49.80;;;20.43;;
66593;SDS011;53450;42.584;23.366;2023-02-07T16:18:37;155.07;;;55.30;;
66593;SDS011;53450;42.584;23.366;2023-02-07T16:21:20;91.60;;;39.00;;
66593;SDS011;53450;42.584;23.366;2023-02-07T16:23:49;105.90;;;41.08;;
66593;SDS011;53450;42.584;23.366;2023-02-07T16:26:18;103.00;;;40.20;;
66593;SDS011;53450;42.584;23.366;2023-02-07T16:28:45;205.10;;;67.03;;
66593;SDS011;53450;42.584;23.366;2023-02-07T16:31:12;217.00;;;75.03;;
66593;SDS011;53450;42.584;23.366;2023-02-07T16:33:38;157.93;;;57.03;;
66593;SDS011;53450;42.584;23.366;2023-02-07T16:36:04;121.50;;;45.80;;
66593;SDS011;53450;42.584;23.366;2023-02-07T16:38:30;108.07;;;40.90;;
66593;SDS011;53450;42.584;23.366;2023-02-07T16:40:56;69.40;;;27.63;;
66593;SDS011;53450;42.584;23.366;2023-02-07T16:43:32;294.80;;;120.57;;
66593;SDS011;53450;42.584;23.366;2023-02-07T16:46:00;110.10;;;39.63;;
66593;SDS011;53450;42.584;23.366;2023-02-07T16:48:26;338.43;;;108.70;;
66593;SDS011;53450;42.584;23.366;2023-02-07T16:50:51;261.80;;;85.57;;
66593;SDS011;53450;42.584;23.366;2023-02-07T16:53:17;199.33;;;70.07;;
66593;SDS011;53450;42.584;23.366;2023-02-07T16:55:43;247.07;;;75.63;;
66593;SDS011;53450;42.584;23.366;2023-02-07T16:58:09;269.40;;;84.83;;
66593;SDS011;53450;42.584;23.366;2023-02-07T17:00:45;191.63;;;55.40;;
66593;SDS011;53450;42.584;23.366;2023-02-07T17:03:13;111.43;;;43.13;;
66593;SDS011;53450;42.584;23.366;2023-02-07T17:05:39;323.30;;;111.07;;
66593;SDS011;53450;42.584;23.366;2023-02-07T17:08:05;164.83;;;52.23;;
66593;SDS011;53450;42.584;23.366;2023-02-07T17:10:30;190.97;;;62.43;;
66593;SDS011;53450;42.584;23.366;2023-02-07T17:12:58;303.57;;;109.70;;
66593;SDS011;53450;42.584;23.366;2023-02-07T17:15:26;136.13;;;49.23;;
66593;SDS011;53450;42.584;23.366;2023-02-07T17:17:51;130.83;;;45.83;;